Time;durP1;ratioP1;P1;durP2;ratioP2;P2;SDS_P1;SDS_P2;PMS_P1;PMS_P2;Temp;Humidity;BMP_temperature;BMP_pressure;BME280_temperature;BME280_humidity;BME280_pressure;Samples;Min_cycle;Max_cycle;Signal;HPM_P1;HPM_P2
2023/07/25 00:00:06;;;;;;;23.95;9.52;;;;;;;22.67;51.06;93714.50;5064554;28;20249;-78
2023/07/25 00:02:31;;;;;;;16.45;9.02;;;;;;;22.69;51.37;93709.44;5064361;28;20096;-78
2023/07/25 00:04:56;;;;;;;19.67;9.10;;;;;;;22.59;51.07;93711.03;5064581;28;20054;-78
2023/07/25 00:07:22;;;;;;;15.52;7.90;;;;;;;22.50;51.72;93714.16;5064200;28;20044;-77
2023/07/25 00:09:47;;;;;;;23.88;9.75;;;;;;;22.47;51.69;93725.03;5064122;28;20029;-78
2023/07/25 00:12:13;;;;;;;16.90;8.82;;;;;;;22.47;52.33;93717.69;5063142;28;20021;-78
2023/07/25 00:14:38;;;;;;;20.60;10.10;;;;;;;22.40;51.76;93715.75;5064282;28;20028;-77
2023/07/25 00:17:04;;;;;;;24.42;9.20;;;;;;;22.45;52.74;93717.31;5064143;28;20031;-77
2023/07/25 00:19:29;;;;;;;19.17;8.55;;;;;;;22.35;53.02;93710.72;5064105;28;20024;-77
2023/07/25 00:21:55;;;;;;;27.40;8.48;;;;;;;22.29;53.30;93708.78;5062962;28;20025;-77
2023/07/25 00:24:20;;;;;;;21.60;9.05;;;;;;;22.33;53.69;93707.63;5063955;28;20049;-77
2023/07/25 00:26:45;;;;;;;23.35;9.20;;;;;;;22.33;53.86;93706.88;5063954;28;20219;-78
2023/07/25 00:29:11;;;;;;;17.02;8.57;;;;;;;22.36;53.96;93708.78;5062571;28;20107;-78
2023/07/25 00:31:36;;;;;;;17.70;8.15;;;;;;;22.23;53.46;93709.19;5062868;28;20063;-78
2023/07/25 00:34:03;;;;;;;16.23;8.23;;;;;;;22.22;54.28;93699.47;5063820;28;20028;-78
2023/07/25 00:36:29;;;;;;;17.00;7.93;;;;;;;22.22;54.57;93695.97;5063801;28;20051;-78
2023/07/25 00:38:54;;;;;;;15.07;8.43;;;;;;;22.18;54.17;93695.22;5063799;28;20334;-78
2023/07/25 00:41:20;;;;;;;19.25;8.73;;;;;;;22.14;54.36;93702.59;5063651;28;20365;-78
2023/07/25 00:43:45;;;;;;;15.00;8.00;;;;;;;22.13;54.73;93699.09;5063492;28;20024;-77
2023/07/25 00:46:10;;;;;;;19.50;9.00;;;;;;;22.11;55.30;93697.94;5063494;28;20052;-78
2023/07/25 00:48:36;;;;;;;15.88;8.23;;;;;;;22.08;54.79;93699.47;5063393;28;20025;-78
2023/07/25 00:51:03;;;;;;;18.52;7.95;;;;;;;22.02;54.76;93701.03;5062226;28;20369;-78
2023/07/25 00:53:29;;;;;;;16.67;8.85;;;;;;;22.02;54.42;93679.34;5063283;28;20032;-78
2023/07/25 00:55:55;;;;;;;17.13;8.68;;;;;;;21.98;54.96;93689.41;5063284;28;20056;-78
2023/07/25 00:58:21;;;;;;;17.42;9.05;;;;;;;21.95;54.94;93680.13;5063333;28;20029;-78
2023/07/25 01:00:46;;;;;;;15.07;7.72;;;;;;;21.93;54.98;93687.09;5063031;28;20373;-78
2023/07/25 01:03:12;;;;;;;28.17;9.70;;;;;;;21.91;55.19;93684.78;5063200;28;20017;-78
2023/07/25 01:05:47;;;;;;;19.60;8.27;;;;;;;21.86;55.15;93677.03;5063260;28;20079;-78
2023/07/25 01:08:12;;;;;;;19.88;8.15;;;;;;;21.89;55.42;93670.84;5063157;28;20032;-77
2023/07/25 01:10:41;;;;;;;17.60;8.45;;;;;;;21.87;55.55;93681.28;5063140;28;20040;-77
2023/07/25 01:13:06;;;;;;;18.63;8.00;;;;;;;21.76;56.06;93675.88;5062824;28;20066;-77
2023/07/25 01:15:34;;;;;;;18.13;7.45;;;;;;;21.77;55.41;93673.94;5063164;28;20045;-77
2023/07/25 01:17:59;;;;;;;17.70;9.10;;;;;;;21.69;56.11;93672.41;5063074;28;20066;-78
2023/07/25 01:20:25;;;;;;;19.85;9.57;;;;;;;21.65;56.37;93683.25;5063118;28;20028;-77
2023/07/25 01:22:52;;;;;;;19.33;10.02;;;;;;;21.60;56.52;93689.06;5063106;28;20102;-77
2023/07/25 01:25:18;;;;;;;15.93;7.50;;;;;;;21.53;56.29;93678.19;5062761;28;20025;-77
2023/07/25 01:27:43;;;;;;;17.83;8.07;;;;;;;21.52;56.79;93680.16;5063019;28;20260;-78
2023/07/25 01:30:09;;;;;;;18.25;8.55;;;;;;;21.49;55.45;93690.97;5062912;28;20417;-77
2023/07/25 01:32:34;;;;;;;18.63;8.57;;;;;;;21.50;55.95;93679.75;5062755;28;20097;-78
2023/07/25 01:35:00;;;;;;;17.10;7.63;;;;;;;21.52;57.10;93680.16;5062553;28;20024;-78
2023/07/25 01:37:25;;;;;;;20.15;8.98;;;;;;;21.48;56.66;93663.09;5062855;28;20040;-78
2023/07/25 01:39:51;;;;;;;20.23;8.82;;;;;;;21.44;56.53;93665.81;5062011;28;20043;-77
2023/07/25 01:42:16;;;;;;;18.98;8.68;;;;;;;21.39;57.06;93673.50;5061396;28;20052;-78
2023/07/25 01:44:41;;;;;;;19.23;8.75;;;;;;;21.41;56.89;93661.13;5060975;28;20324;-77
2023/07/25 01:47:07;;;;;;;15.88;8.45;;;;;;;21.44;56.30;93668.50;5062108;28;20031;-78
2023/07/25 01:49:33;;;;;;;16.65;8.40;;;;;;;21.45;56.42;93658.44;5062324;28;20033;-77
2023/07/25 01:51:58;;;;;;;17.50;8.48;;;;;;;21.50;55.52;93670.84;5062811;28;20020;-77
2023/07/25 01:54:24;;;;;;;14.95;8.40;;;;;;;21.48;55.58;93673.94;5062469;28;20071;-77
2023/07/25 01:56:50;;;;;;;24.42;9.63;;;;;;;21.55;56.10;93678.59;5062591;28;20041;-77
2023/07/25 01:59:16;;;;;;;16.02;8.68;;;;;;;21.54;56.26;93672.41;5062563;28;20033;-78
2023/07/25 02:01:42;;;;;;;18.15;9.70;;;;;;;21.56;55.62;93685.56;5062282;28;20222;-77
2023/07/25 02:04:07;;;;;;;21.33;9.05;;;;;;;21.57;54.70;93687.09;5062392;28;20096;-76
2023/07/25 02:06:32;;;;;;;21.05;9.25;;;;;;;21.49;54.95;93693.69;5062500;28;20017;-77
2023/07/25 02:08:58;;;;;;;25.45;9.15;;;;;;;21.51;55.36;93694.09;5062680;28;20338;-77
2023/07/25 02:11:23;;;;;;;20.17;8.60;;;;;;;21.55;55.84;93703.00;5062506;28;20036;-76
2023/07/25 02:13:49;;;;;;;21.92;9.77;;;;;;;21.54;56.10;93709.59;5062343;28;20194;-77
2023/07/25 02:16:14;;;;;;;21.58;9.48;;;;;;;21.58;55.49;93715.78;5062475;28;20017;-77
2023/07/25 02:18:40;;;;;;;17.70;8.45;;;;;;;21.55;54.17;93713.84;5062360;28;20017;-77
2023/07/25 02:21:05;;;;;;;21.20;9.40;;;;;;;21.52;55.13;93701.06;5062302;28;20020;-77
2023/07/25 02:23:31;;;;;;;19.90;9.90;;;;;;;21.50;55.12;93704.16;5062413;28;20017;-77
2023/07/25 02:25:56;;;;;;;24.88;8.57;;;;;;;21.48;55.04;93706.47;5062712;28;20020;-77
2023/07/25 02:28:22;;;;;;;17.95;9.55;;;;;;;21.40;54.83;93710.31;5062490;28;20307;-77
2023/07/25 02:30:50;;;;;;;17.20;9.13;;;;;;;21.44;55.05;93716.53;5062275;28;20020;-77
2023/07/25 02:33:16;;;;;;;17.98;8.85;;;;;;;21.44;55.38;93721.97;5062315;28;20021;-76
2023/07/25 02:35:41;;;;;;;19.45;9.43;;;;;;;21.36;55.58;93721.16;5062138;28;20025;-77
2023/07/25 02:38:07;;;;;;;22.52;10.00;;;;;;;21.31;55.75;93723.44;5062699;28;20090;-77
2023/07/25 02:40:33;;;;;;;20.50;10.73;;;;;;;21.27;55.73;93728.88;5061828;28;20028;-78
2023/07/25 02:42:58;;;;;;;19.33;10.13;;;;;;;21.13;56.34;93724.19;5063285;28;20025;-78
2023/07/25 02:45:24;;;;;;;17.42;8.98;;;;;;;21.08;56.96;93724.56;5063093;28;20044;-78
2023/07/25 02:47:49;;;;;;;24.13;10.43;;;;;;;20.97;57.08;93729.97;5063320;28;20025;-78
2023/07/25 02:50:15;;;;;;;26.27;10.52;;;;;;;21.02;56.98;93718.75;5062602;28;20090;-78
2023/07/25 02:52:40;;;;;;;19.88;9.75;;;;;;;20.99;57.82;93713.31;5062684;28;20212;-79
2023/07/25 02:55:06;;;;;;;22.80;10.45;;;;;;;21.06;58.39;93712.56;5065312;28;20036;-79
2023/07/25 02:57:31;;;;;;;18.95;10.13;;;;;;;20.98;58.33;93703.63;5065072;28;20067;-78
2023/07/25 02:59:57;;;;;;;28.00;10.55;;;;;;;20.95;58.46;93707.88;5066565;28;20027;-78
2023/07/25 03:02:22;;;;;;;26.08;9.00;;;;;;;20.90;59.00;93710.97;5065792;28;20044;-78
2023/07/25 03:04:48;;;;;;;23.35;9.57;;;;;;;20.91;59.09;93707.09;5066368;28;20215;-77
2023/07/25 03:07:13;;;;;;;26.98;10.40;;;;;;;20.87;58.97;93719.09;5066149;28;20206;-78
2023/07/25 03:09:40;;;;;;;24.60;10.20;;;;;;;20.84;58.90;93715.19;5066181;28;20053;-77
2023/07/25 03:12:06;;;;;;;26.02;9.45;;;;;;;20.87;58.79;93708.25;5066302;28;20052;-78
2023/07/25 03:14:31;;;;;;;17.85;8.85;;;;;;;20.71;59.14;93711.28;5065890;28;20024;-78
2023/07/25 03:16:57;;;;;;;16.05;8.52;;;;;;;20.73;59.85;93717.09;5065867;28;20049;-78
2023/07/25 03:19:22;;;;;;;26.15;10.13;;;;;;;20.58;59.61;93711.63;5066037;28;20050;-78
2023/07/25 03:21:48;;;;;;;23.95;9.88;;;;;;;20.69;60.01;93710.91;5066138;28;20088;-78
2023/07/25 03:24:13;;;;;;;20.60;10.07;;;;;;;20.60;59.45;93709.31;5065626;28;20025;-78
2023/07/25 03:26:39;;;;;;;20.85;9.82;;;;;;;20.61;59.61;93710.84;5065291;28;20027;-76
2023/07/25 03:29:04;;;;;;;19.90;10.10;;;;;;;20.56;59.78;93715.84;5065012;28;20025;-78
2023/07/25 03:31:29;;;;;;;20.63;10.50;;;;;;;20.61;60.45;93713.56;5065251;28;20381;-78
2023/07/25 03:33:55;;;;;;;20.35;10.65;;;;;;;20.56;59.99;93716.63;5065510;28;20084;-78
2023/07/25 03:36:20;;;;;;;19.38;10.40;;;;;;;20.59;59.57;93724.00;5065364;28;20013;-78
2023/07/25 03:38:46;;;;;;;22.95;10.00;;;;;;;20.62;59.44;93723.25;5065593;28;20319;-78
2023/07/25 03:41:11;;;;;;;19.60;9.82;;;;;;;20.65;59.81;93727.13;5065486;28;20056;-78
2023/07/25 03:43:37;;;;;;;20.25;9.55;;;;;;;20.61;58.90;93716.25;5065488;28;20021;-78
2023/07/25 03:46:03;;;;;;;23.40;10.68;;;;;;;20.62;59.58;93723.25;5065365;28;20024;-79
2023/07/25 03:48:28;;;;;;;27.45;12.10;;;;;;;20.63;59.85;93718.59;5065256;28;20028;-79
2023/07/25 03:50:54;;;;;;;21.40;11.38;;;;;;;20.62;59.71;93723.25;5065484;28;20013;-78
2023/07/25 03:53:19;;;;;;;21.10;11.57;;;;;;;20.49;60.64;93727.38;5065674;28;20100;-79
2023/07/25 03:55:45;;;;;;;22.55;11.43;;;;;;;20.57;60.24;93720.09;5065417;28;20330;-79
2023/07/25 03:58:10;;;;;;;25.00;11.15;;;;;;;20.63;60.26;93713.94;5065420;28;20062;-78
2023/07/25 04:00:36;;;;;;;25.80;10.35;;;;;;;20.74;60.29;93697.78;5065405;28;20047;-79
2023/07/25 04:03:01;;;;;;;28.80;10.23;;;;;;;20.85;61.41;93697.81;5065153;28;20219;-78
2023/07/25 04:05:26;;;;;;;31.52;10.82;;;;;;;20.90;60.50;93705.53;5066354;28;20028;-79
2023/07/25 04:07:52;;;;;;;23.55;10.27;;;;;;;20.92;59.97;93692.38;5067133;28;20080;-79
2023/07/25 04:10:17;;;;;;;21.83;10.57;;;;;;;21.03;60.43;93693.22;5066677;28;20092;-79
2023/07/25 04:12:43;;;;;;;19.70;10.07;;;;;;;21.16;60.38;93706.41;5068411;28;20029;-78
2023/07/25 04:15:12;;;;;;;25.92;10.25;;;;;;;21.11;59.81;93720.34;5065957;28;20091;-79
2023/07/25 04:17:37;;;;;;;23.67;10.63;;;;;;;21.09;59.93;93722.66;5064616;28;20071;-79
2023/07/25 04:20:03;;;;;;;19.73;10.13;;;;;;;21.17;61.04;93733.13;5064982;28;20024;-78
2023/07/25 04:22:29;;;;;;;19.15;10.75;;;;;;;21.19;59.78;93733.50;5064917;28;20036;-78
2023/07/25 04:24:54;;;;;;;22.35;10.85;;;;;;;21.13;59.29;93724.19;5064987;28;20036;-78
2023/07/25 04:27:20;;;;;;;22.27;10.65;;;;;;;21.15;59.28;93729.25;5064677;28;20037;-79
2023/07/25 04:29:45;;;;;;;22.83;11.35;;;;;;;21.24;60.26;93730.41;5063930;28;20047;-79
2023/07/25 04:32:11;;;;;;;22.83;10.00;;;;;;;21.31;60.17;93721.53;5064055;28;20025;-79
2023/07/25 04:34:36;;;;;;;31.38;12.38;;;;;;;21.41;58.88;93728.91;5063719;28;20032;-78
2023/07/25 04:37:02;;;;;;;22.30;11.82;;;;;;;21.53;59.53;93718.88;5063763;28;20040;-78
2023/07/25 04:39:27;;;;;;;22.40;12.32;;;;;;;21.48;59.71;93711.13;5063870;28;20025;-78
2023/07/25 04:41:53;;;;;;;28.20;10.95;;;;;;;21.54;59.62;93715.78;5063678;28;20311;-78
2023/07/25 04:44:18;;;;;;;38.40;12.95;;;;;;;21.67;60.23;93702.59;5063391;28;20020;-78
2023/07/25 04:46:44;;;;;;;25.00;12.48;;;;;;;21.77;60.20;93696.41;5063696;28;20032;-76
2023/07/25 04:49:11;;;;;;;27.33;12.52;;;;;;;21.84;59.47;93693.72;5063445;28;20013;-77
2023/07/25 04:51:38;;;;;;;25.45;12.88;;;;;;;21.95;59.00;93711.91;5063443;28;20334;-78
2023/07/25 04:54:03;;;;;;;30.67;13.20;;;;;;;21.98;58.05;93702.97;5063325;28;20040;-77
2023/07/25 04:56:29;;;;;;;29.90;12.80;;;;;;;22.00;57.60;93706.09;5062159;28;20062;-77
2023/07/25 04:58:54;;;;;;;30.50;12.80;;;;;;;22.09;57.22;93706.47;5063484;28;20096;-78
2023/07/25 05:01:20;;;;;;;28.90;12.80;;;;;;;22.15;56.78;93702.19;5062066;28;20074;-77
2023/07/25 05:03:45;;;;;;;37.97;14.05;;;;;;;22.21;56.66;93694.44;5063138;28;20307;-78
2023/07/25 05:06:11;;;;;;;30.20;12.70;;;;;;;22.24;57.30;93699.09;5062078;28;20055;-78
2023/07/25 05:08:37;;;;;;;34.63;13.23;;;;;;;22.27;57.30;93700.25;5062900;28;20021;-78
2023/07/25 05:11:02;;;;;;;35.22;14.00;;;;;;;22.32;56.95;93689.78;5063107;28;20048;-78
2023/07/25 05:13:28;;;;;;;28.58;13.30;;;;;;;22.30;56.59;93688.63;5063059;28;20021;-78
2023/07/25 05:15:53;;;;;;;32.17;13.85;;;;;;;22.30;56.82;93691.34;5062806;28;20031;-77
2023/07/25 05:18:19;;;;;;;29.25;12.82;;;;;;;22.39;56.25;93680.84;5062557;28;20025;-78
2023/07/25 05:20:44;;;;;;;30.58;13.38;;;;;;;22.41;56.10;93684.72;5062985;28;20258;-79
2023/07/25 05:23:10;;;;;;;32.42;12.07;;;;;;;22.46;56.18;93688.19;5062915;28;20207;-78
2023/07/25 05:25:35;;;;;;;35.95;12.88;;;;;;;22.51;57.54;93696.72;5063072;28;20024;-78
2023/07/25 05:28:01;;;;;;;29.27;13.45;;;;;;;22.53;57.52;93691.69;5062999;28;20020;-78
2023/07/25 05:30:26;;;;;;;32.75;12.73;;;;;;;22.67;59.02;93693.53;5062996;28;20251;-75
2023/07/25 05:32:52;;;;;;;31.77;13.38;;;;;;;22.70;57.97;93700.91;5062860;28;20155;-75
2023/07/25 05:35:20;;;;;;;29.88;14.02;;;;;;;22.75;57.51;93702.44;5062859;28;20215;-76
2023/07/25 05:37:45;;;;;;;30.73;12.68;;;;;;;22.79;56.48;93700.50;5062823;28;20333;-75
2023/07/25 05:40:11;;;;;;;30.60;13.15;;;;;;;22.81;57.30;93706.31;5062797;28;20040;-81
2023/07/25 05:42:36;;;;;;;30.63;14.63;;;;;;;22.83;57.05;93703.97;5062683;28;20311;-79
2023/07/25 05:45:02;;;;;;;34.95;13.77;;;;;;;22.84;56.26;93702.81;5062743;28;20078;-78
2023/07/25 05:47:28;;;;;;;32.15;13.90;;;;;;;22.87;56.35;93704.72;5063006;28;20043;-77
2023/07/25 05:49:55;;;;;;;33.30;13.25;;;;;;;22.92;56.46;93701.59;5062712;28;20096;-76
2023/07/25 05:52:20;;;;;;;36.90;14.13;;;;;;;23.01;56.26;93699.25;5062866;28;20045;-76
2023/07/25 05:54:46;;;;;;;43.65;14.88;;;;;;;23.13;55.81;93691.81;5062875;28;20045;-77
2023/07/25 05:57:11;;;;;;;40.15;13.27;;;;;;;23.22;56.22;93697.59;5062518;28;20025;-77
2023/07/25 05:59:37;;;;;;;30.63;13.02;;;;;;;23.29;56.10;93683.97;5062640;28;20027;-78
2023/07/25 06:02:04;;;;;;;31.40;13.35;;;;;;;23.42;55.27;93689.69;5061423;28;20024;-78
2023/07/25 06:04:30;;;;;;;40.78;14.27;;;;;;;23.49;54.59;93688.88;5062829;28;20044;-79
2023/07/25 06:06:55;;;;;;;37.75;13.05;;;;;;;23.59;53.98;93688.00;5061669;28;20059;-78
2023/07/25 06:09:21;;;;;;;37.08;13.73;;;;;;;23.63;54.22;93675.19;5062364;28;20051;-79
2023/07/25 06:11:46;;;;;;;38.13;13.35;;;;;;;23.74;54.16;93684.03;5062738;28;20048;-78
2023/07/25 06:14:12;;;;;;;35.00;13.27;;;;;;;23.76;53.75;93670.78;5063001;28;20368;-78
2023/07/25 06:16:37;;;;;;;30.15;13.35;;;;;;;23.86;54.14;93673.88;5062412;28;20063;-77
2023/07/25 06:19:02;;;;;;;36.80;12.45;;;;;;;23.93;54.09;93663.66;5062589;28;20270;-76
2023/07/25 06:21:28;;;;;;;30.67;12.70;;;;;;;23.95;53.77;93671.44;5062366;28;20262;-78
2023/07/25 06:23:54;;;;;;;26.80;13.10;;;;;;;23.93;53.72;93658.22;5062322;28;20043;-78
2023/07/25 06:26:19;;;;;;;35.53;12.00;;;;;;;24.14;53.64;93651.03;5062464;28;20073;-81
2023/07/25 06:28:45;;;;;;;24.33;11.18;;;;;;;24.13;53.24;93655.69;5063005;28;20319;-83
2023/07/25 06:31:10;;;;;;;25.95;10.90;;;;;;;24.29;52.83;93652.44;5066478;28;20085;-84
2023/07/25 06:33:36;;;;;;;27.40;10.40;;;;;;;24.50;52.33;93647.94;5064975;28;20311;-84
2023/07/25 06:36:01;;;;;;;36.47;10.65;;;;;;;24.63;51.33;93638.84;5066282;28;20025;-86
2023/07/25 06:38:27;;;;;;;40.25;11.55;;;;;;;24.83;51.16;93632.75;5063227;28;20036;-79
2023/07/25 06:40:52;;;;;;;25.45;10.55;;;;;;;24.96;50.42;93630.25;5061904;28;20048;-80
2023/07/25 06:43:17;;;;;;;30.70;12.38;;;;;;;24.97;50.17;93623.59;5062341;28;20032;-79
2023/07/25 06:45:43;;;;;;;27.15;10.65;;;;;;;25.05;49.97;93635.19;5061073;28;20330;-79
2023/07/25 06:48:08;;;;;;;31.30;11.05;;;;;;;25.19;49.32;93626.81;5062715;28;20020;-79
2023/07/25 06:50:34;;;;;;;32.10;11.05;;;;;;;25.32;48.94;93633.28;5061912;28;20327;-79
2023/07/25 06:52:59;;;;;;;42.90;10.93;;;;;;;25.45;48.82;93640.88;5063477;28;20319;-79
2023/07/25 06:55:25;;;;;;;28.48;10.77;;;;;;;25.53;47.84;93631.41;5062948;28;20095;-79
2023/07/25 06:57:51;;;;;;;22.90;10.13;;;;;;;25.58;48.28;93636.38;5062913;28;20307;-79
2023/07/25 07:00:18;;;;;;;22.67;10.43;;;;;;;25.66;47.01;93643.25;5063331;28;20028;-80
2023/07/25 07:02:44;;;;;;;24.80;10.98;;;;;;;25.71;46.90;93637.34;5063232;28;20067;-80
2023/07/25 07:05:09;;;;;;;29.75;10.32;;;;;;;25.80;46.30;93644.97;5063001;28;20235;-80
2023/07/25 07:07:35;;;;;;;40.17;12.55;;;;;;;25.86;45.99;93650.75;5063220;28;20020;-80
2023/07/25 07:10:00;;;;;;;35.13;11.13;;;;;;;25.81;45.45;93646.53;5063424;28;20024;-80
2023/07/25 07:12:26;;;;;;;33.40;10.40;;;;;;;25.82;45.93;93648.84;5064410;28;20066;-80
2023/07/25 07:14:51;;;;;;;19.77;10.20;;;;;;;25.88;45.54;93645.63;5065445;28;20020;-79
2023/07/25 07:17:17;;;;;;;25.35;10.73;;;;;;;25.92;46.35;93643.66;5065342;28;20029;-79
2023/07/25 07:19:43;;;;;;;43.75;11.57;;;;;;;25.93;45.68;93645.19;5065122;28;20032;-79
2023/07/25 07:22:08;;;;;;;25.48;10.05;;;;;;;25.99;45.15;93641.56;5065140;28;20055;-79
2023/07/25 07:24:34;;;;;;;23.50;10.48;;;;;;;26.07;44.76;93634.00;5065188;28;20063;-79
2023/07/25 07:26:59;;;;;;;24.45;10.88;;;;;;;26.06;45.21;93646.13;5065231;28;20339;-79
2023/07/25 07:29:25;;;;;;;26.10;10.13;;;;;;;26.07;45.38;93641.44;5065017;28;20346;-79
2023/07/25 07:31:50;;;;;;;22.42;10.77;;;;;;;26.14;45.74;93631.16;5064980;28;20025;-79
2023/07/25 07:34:17;;;;;;;30.15;11.95;;;;;;;26.21;45.35;93625.53;5064801;28;20032;-79
2023/07/25 07:36:43;;;;;;;51.30;13.77;;;;;;;26.30;46.03;93632.44;5064754;28;20021;-79
2023/07/25 07:39:09;;;;;;;26.17;11.55;;;;;;;26.24;45.65;93629.44;5064667;28;20070;-79
2023/07/25 07:41:35;;;;;;;36.05;11.27;;;;;;;26.31;45.70;93631.25;5064558;28;20222;-78
2023/07/25 07:44:01;;;;;;;19.40;11.00;;;;;;;26.36;45.07;93620.59;5064707;28;20077;-79
2023/07/25 07:46:31;;;;;;;27.60;11.15;;;;;;;26.46;45.13;93616.13;5064637;28;20023;-79
2023/07/25 07:49:00;;;;;;;32.92;11.27;;;;;;;26.50;45.67;93630.50;5064516;28;20055;-80
2023/07/25 07:51:26;;;;;;;32.13;12.32;;;;;;;26.56;44.62;93617.09;5063144;28;20062;-78
2023/07/25 07:53:52;;;;;;;32.35;11.43;;;;;;;26.61;44.52;93611.16;5064486;28;20230;-78
2023/07/25 07:56:17;;;;;;;32.83;12.52;;;;;;;26.69;44.23;93620.00;5064291;28;20021;-81
2023/07/25 07:58:43;;;;;;;27.27;10.93;;;;;;;26.82;43.32;93618.91;5064556;28;20028;-82
2023/07/25 08:01:19;;;;;;;38.88;13.27;;;;;;;26.86;43.25;93607.13;5064502;28;20036;-81
2023/07/25 08:03:45;;;;;;;29.20;10.48;;;;;;;26.99;44.14;93605.31;5064491;28;20032;-83
2023/07/25 08:06:11;;;;;;;26.63;11.52;;;;;;;27.06;42.58;93604.38;5064466;28;20021;-82
2023/07/25 08:08:37;;;;;;;33.28;12.20;;;;;;;27.10;42.12;93591.38;5064245;28;20027;-81
2023/07/25 08:11:03;;;;;;;24.00;10.88;;;;;;;27.12;42.13;93597.19;5064541;28;20025;-82
2023/07/25 08:13:28;;;;;;;27.33;10.63;;;;;;;27.22;41.99;93599.69;5064207;28;20327;-79
2023/07/25 08:15:54;;;;;;;23.80;11.93;;;;;;;27.37;42.66;93594.66;5063004;28;20028;-81
2023/07/25 08:18:20;;;;;;;24.50;11.07;;;;;;;27.52;41.53;93594.31;5062819;28;20056;-80
2023/07/25 08:20:45;;;;;;;21.70;11.02;;;;;;;27.59;40.88;93591.44;5064168;28;20021;-80
2023/07/25 08:23:11;;;;;;;29.42;11.57;;;;;;;27.66;39.94;93591.25;5064011;28;20029;-81
2023/07/25 08:25:40;;;;;;;42.30;11.68;;;;;;;27.72;40.29;93589.53;5063673;28;20025;-81
2023/07/25 08:28:05;;;;;;;26.77;13.07;;;;;;;27.83;40.07;93597.47;5063890;28;20059;-82
2023/07/25 08:30:31;;;;;;;29.75;11.15;;;;;;;28.02;40.00;93590.34;5064044;28;20033;-82
2023/07/25 08:32:57;;;;;;;23.83;11.23;;;;;;;28.25;39.92;93585.84;5064125;28;20044;-81
2023/07/25 08:35:22;;;;;;;23.55;11.32;;;;;;;28.33;39.23;93581.72;5063720;28;20048;-81
2023/07/25 08:37:48;;;;;;;30.50;11.02;;;;;;;28.50;38.22;93585.19;5063753;28;20277;-81
2023/07/25 08:40:14;;;;;;;23.15;10.18;;;;;;;28.57;37.52;93574.03;5063810;28;20025;-82
2023/07/25 08:42:45;;;;;;;29.05;10.18;;;;;;;28.65;37.56;93571.84;5062397;28;20032;-80
2023/07/25 08:45:11;;;;;;;23.52;10.05;;;;;;;28.59;37.65;93572.38;5063706;28;20095;-81
2023/07/25 08:47:41;;;;;;;31.15;11.20;;;;;;;28.79;36.63;93563.19;5063748;28;20028;-84
2023/07/25 08:50:16;;;;;;;27.90;10.85;;;;;;;28.89;36.69;93564.84;5062430;28;20215;-84
2023/07/25 08:52:52;;;;;;;28.50;10.55;;;;;;;28.84;36.89;93565.38;5062586;28;20025;-82
2023/07/25 08:55:21;;;;;;;30.10;10.02;;;;;;;28.98;37.17;93553.22;5063436;28;20048;-85
2023/07/25 08:57:48;;;;;;;20.08;9.60;;;;;;;29.12;36.36;93568.50;5063452;28;20206;-81
2023/07/25 09:00:14;;;;;;;24.02;10.98;;;;;;;29.20;36.14;93567.06;5063375;28;20032;-80
2023/07/25 09:02:40;;;;;;;26.75;10.05;;;;;;;29.42;36.58;93563.66;5063179;28;20031;-81
2023/07/25 09:05:06;;;;;;;22.38;10.77;;;;;;;29.55;35.59;93561.66;5062881;28;20111;-81
2023/07/25 09:07:31;;;;;;;30.20;10.57;;;;;;;29.70;35.95;93546.25;5063353;28;20033;-81
2023/07/25 09:09:58;;;;;;;35.92;10.68;;;;;;;29.82;35.35;93558.44;5063173;28;20079;-81
2023/07/25 09:12:24;;;;;;;20.77;10.02;;;;;;;29.99;35.83;93553.53;5063120;28;20092;-80
2023/07/25 09:14:51;;;;;;;25.17;10.95;;;;;;;30.14;35.00;93549.06;5063114;28;20283;-80
2023/07/25 09:17:16;;;;;;;27.48;10.10;;;;;;;30.20;33.66;93552.81;5062933;28;20096;-80
2023/07/25 09:19:42;;;;;;;19.25;10.02;;;;;;;30.24;33.29;93543.66;5062879;28;20024;-81
2023/07/25 09:22:29;;;;;;;29.88;10.32;;;;;;;30.30;33.01;93536.41;5062936;28;20052;-81
2023/07/25 09:24:55;;;;;;;33.85;10.77;;;;;;;30.29;32.68;93541.09;5062795;28;20257;-80
2023/07/25 09:27:32;;;;;;;33.22;10.25;;;;;;;30.24;33.80;93538.91;5062513;28;20060;-80
2023/07/25 09:29:58;;;;;;;18.67;9.38;;;;;;;30.44;33.01;93527.63;5061975;28;20218;-80
2023/07/25 09:32:25;;;;;;;27.17;9.52;;;;;;;30.59;32.11;93531.41;5062544;28;20033;-81
2023/07/25 09:34:55;;;;;;;21.30;9.20;;;;;;;30.70;31.83;93541.22;5062696;28;20025;-81
2023/07/25 09:37:21;;;;;;;30.42;9.48;;;;;;;30.82;31.40;93531.31;5062723;28;20029;-80
2023/07/25 09:39:47;;;;;;;22.42;9.15;;;;;;;30.97;31.63;93543.34;5062755;28;20036;-84
2023/07/25 09:42:13;;;;;;;27.38;9.55;;;;;;;30.95;31.55;93543.81;5062780;28;20092;-85
2023/07/25 09:44:48;;;;;;;29.83;10.32;;;;;;;31.04;31.04;93542.31;5062452;28;20035;-83
2023/07/25 09:47:19;;;;;;;30.77;10.32;;;;;;;31.12;31.98;93532.56;5062728;28;20021;-84
2023/07/25 09:49:49;;;;;;;16.38;8.75;;;;;;;31.07;32.01;93527.66;5062541;28;20135;-82
2023/07/25 09:52:15;;;;;;;20.63;9.35;;;;;;;31.06;31.75;93535.16;5062488;28;20020;-84
2023/07/25 09:54:41;;;;;;;26.83;10.07;;;;;;;31.07;31.73;93538.66;5062441;28;20246;-82
2023/07/25 09:57:07;;;;;;;19.65;9.27;;;;;;;31.15;31.85;93537.91;5062394;28;20025;-83
2023/07/25 09:59:35;;;;;;;19.75;9.50;;;;;;;31.24;31.64;93534.44;5062312;28;20213;-83
2023/07/25 10:02:00;;;;;;;22.30;9.75;;;;;;;31.31;32.09;93536.91;5061321;28;20037;-82
2023/07/25 10:04:27;;;;;;;21.75;9.02;;;;;;;31.44;31.99;93530.50;5066130;28;20176;-81
2023/07/25 10:06:53;;;;;;;28.33;10.20;;;;;;;31.42;31.80;93516.44;5066638;28;20315;-79
2023/07/25 10:09:18;;;;;;;16.90;8.68;;;;;;;31.52;31.34;93516.00;5066418;28;20035;-79
2023/07/25 10:11:44;;;;;;;21.50;10.38;;;;;;;31.67;32.85;93499.69;5066514;28;20244;-81
2023/07/25 10:14:10;;;;;;;19.27;9.10;;;;;;;31.87;31.81;93501.97;5066513;28;20093;-82
2023/07/25 10:16:37;;;;;;;22.23;9.07;;;;;;;31.97;31.14;93494.47;5066163;28;20091;-80
2023/07/25 10:19:05;;;;;;;24.85;9.25;;;;;;;32.02;30.45;93496.66;5066298;28;20029;-80
2023/07/25 10:21:51;;;;;;;17.77;9.43;;;;;;;32.22;31.50;93487.13;5066301;28;20025;-81
2023/07/25 10:24:18;;;;;;;24.67;10.05;;;;;;;32.38;31.52;93484.03;5066140;28;20323;-81
2023/07/25 10:26:57;;;;;;;16.50;9.07;;;;;;;32.58;30.86;93473.25;5066100;28;20017;-81
2023/07/25 10:29:42;;;;;;;19.83;9.05;;;;;;;32.74;29.36;93468.63;5064769;28;20025;-80
2023/07/25 10:32:12;;;;;;;23.63;8.35;;;;;;;32.86;29.87;93466.91;5066026;28;20307;-81
2023/07/25 10:34:50;;;;;;;21.50;9.90;;;;;;;33.02;30.42;93465.75;5066015;28;20027;-79
2023/07/25 10:37:35;;;;;;;36.08;9.73;;;;;;;33.09;29.19;93451.63;5065894;28;20029;-77
2023/07/25 10:40:12;;;;;;;20.33;8.38;;;;;;;33.03;29.55;93454.22;5065976;28;20219;-81
2023/07/25 10:42:42;;;;;;;22.80;8.98;;;;;;;33.09;28.80;93446.09;5064662;28;20032;-80
2023/07/25 10:45:38;;;;;;;20.10;8.80;;;;;;;33.20;29.21;93443.59;5065703;28;20025;-79
2023/07/25 10:48:28;;;;;;;21.17;8.68;;;;;;;33.42;29.86;93434.25;5065400;28;20068;-80
2023/07/25 10:50:54;;;;;;;25.15;8.75;;;;;;;33.44;29.46;93429.00;5064457;28;20029;-78
2023/07/25 10:53:21;;;;;;;15.80;8.80;;;;;;;33.51;29.89;93428.66;5065736;28;20271;-80
2023/07/25 10:56:10;;;;;;;29.10;9.13;;;;;;;33.71;29.87;93434.34;5065344;28;20159;-79
2023/07/25 10:59:02;;;;;;;23.25;9.80;;;;;;;33.84;28.61;93420.28;5058999;28;20045;-81
2023/07/25 11:01:34;;;;;;;20.77;8.80;;;;;;;33.95;29.38;93403.13;5065700;28;20028;-80
2023/07/25 11:04:30;;;;;;;18.42;8.52;;;;;;;34.01;28.02;93403.97;5065954;28;20032;-88
2023/07/25 11:07:09;;;;;;;13.95;8.20;;;;;;;34.15;27.75;93402.50;5064079;28;20342;-86
2023/07/25 11:09:40;;;;;;;20.55;8.32;;;;;;;34.29;28.05;93401.72;5066203;28;20079;-86
2023/07/25 11:12:07;;;;;;;23.00;8.13;;;;;;;34.45;27.40;93394.94;5065343;28;20066;-83
2023/07/25 11:14:39;;;;;;;25.88;9.23;;;;;;;34.55;27.38;93387.31;5064574;28;20033;-82
2023/07/25 11:17:04;;;;;;;22.30;8.52;;;;;;;34.75;27.61;93384.59;5065213;28;20020;-83